Barcelona, Španija

06:46 PM CEST on junij 30, 2015 (GMT +0200)
Avenida doctor Gallart i Mones, | | Change Station
CLOSE
Current Station
Osebne vremenske postaje
Location: El Prat De Llobregat, CATALUNYA
Višina: 13 ft
Nearby Weather Stations
Active Advisory: Extreme high temperature

Viš 13 ft 41.32 °N, 2.09 °E | Updated 48 seconds ago

Partly Cloudy
Delno oblacno
84.4 °F
Feels Like 86 °F
N
4.0
Veter Spremenljivo Veter od Jug
Gusts 8.0 mph

Danes
High -- | Low -- °F
--% Chance of Precip.
Yesterday
High -- | Low -- °F
Precip. -- v
6:21 AM 9:28 PM
Naraščajoča luna, 98% visible
Zračni tlak 30.01 v
Vidljivost 6.2 milje
Oblaki Few 5500 ft
Toplotni indeks 86 °F
Rosišče 65 °F
Vlažnost 52%
Padavine v
Snow Depth Not available.
UV 1.2 out of 12
Pollen Not available.
Air Quality Not available.
Flu Activity Not available.
METAR LEBL 301630Z 20007KT 170V230 9999 FEW055 28/20 Q1016 NOSIG

More Conditions Fewer Conditions

Zračni tlak 30.01 v
Vidljivost 6.2 milje
Oblaki Few 5500 ft
Toplotni indeks 86 °F
Rosišče 65 °F
Vlažnost 52%
Padavine v
Snow Depth Not available.
UV 1.2 out of 12
Pollen Not available.
Air Quality Not available.
Flu Activity Not available.
METAR LEBL 301630Z 20007KT 170V230 9999 FEW055 28/20 Q1016 NOSIG

More Conditions Fewer Conditions

10-Day Weather Forecast

×

Almanac

Astronomija

Jun. 30, 2015 Rise Set
Actual Time
Civil Twilight
Nautical Twilight
Astronomical Twilight
Moon
Length Of Visible Light
Dolžina dneva
Tomorrow will be .
, % of the Moon is Illuminated

Današnji ekstremi

Country Highs Country Lows

Community

WunderPhotos

Upload Photos

1,834,038 photos uploaded!

WunderBlogs® & News

Nearby

Air Quality

  Air Quality AQ Index Pollutant
Not available.

Snow Depth

Station Depth Višina

Earthquake Activity

City Distance Mag. Time & Date
Minimum magnitude displayed is 2.5.

Coastal Water Temperatures

Mesto Temperatura

Stations

Nearby Weather Stations

Station Location Temp Občutek zaradi vetra Rosišče Vlažnost Veter Precip. Viš Obnovljeno Type